Terminal Aerodrome Forecast
Issued by NWS

Home | Current Version | Previous Version | Graphics & Text | Print | Product List | Glossary Off
Versions: 1 2 3 4 5 6 7 8 9 10 11 12 13 14 15 16 17 18 19 20 21 22 23 24

745
FTUS43 KABR 281121
TAFPIR
TAF
KPIR 281121Z 2812/2912 VRB05KT P6SM BKN045 BKN060
     FM281600 12011KT P6SM OVC110
     FM290200 VRB05KT P6SM OVC090=

USA.gov is the U.S. government's official web portal to all federal, state and local government web resources and services.